Terminal Aerodrome Forecast
Issued by NWS Mt. Holly, NJ

Home | Current Version | Previous Version | Text Only | Print | Product List | Glossary On
Versions: 1 2 3 4 5 6 7 8 9
000
FTUS41 KPHI 281100
TAFRDG
TAF
KRDG 281120Z 2812/2912 VRB02KT 6SM -SHRA SCT025 OVC050
     FM281400 29006KT 6SM -SHRA BKN025
     FM281900 31007KT P6SM SCT025 OVC120
     FM290800 32006KT P6SM BKN200=

USA.gov is the U.S. government's official web portal to all federal, state and local government web resources and services.